Time,TemperatureF,DewpointF,PressureIn,WindDirection,WindDirectionDegrees,WindSpeedMPH,WindSpeedGustMPH,Humidity,HourlyPrecipIn,Conditions,Clouds,dailyrainin,SoftwareType,DateUTC
2013-10-21 00:06:00,52.1,36.0,30.12,North,1,1.0,2.0,55,0.00,,,0.00,weatherlink.com 1.10,2013-10-21 07:06:00,
2013-10-21 00:21:00,51.7,36.0,30.12,North,11,1.0,2.0,56,0.00,,,0.00,weatherlink.com 1.10,2013-10-21 07:21:00,
2013-10-21 00:36:00,51.5,36.0,30.12,North,4,0.0,1.0,56,0.00,,,0.00,weatherlink.com 1.10,2013-10-21 07:36:00,
2013-10-21 00:51:00,51.4,36.0,30.12,North,354,0.0,1.0,56,0.00,,,0.00,weatherlink.com 1.10,2013-10-21 07:51:00,
2013-10-21 01:06:00,50.4,36.0,30.13,North,356,0.0,0.0,58,0.00,,,0.00,weatherlink.com 1.10,2013-10-21 08:06:00,
2013-10-21 01:21:00,49.8,36.0,30.13,North,354,0.0,0.0,60,0.00,,,0.00,weatherlink.com 1.10,2013-10-21 08:21:00,
2013-10-21 01:36:00,48.8,36.0,30.13,North,354,0.0,0.0,61,0.00,,,0.00,weatherlink.com 1.10,2013-10-21 08:36:00,
2013-10-21 01:51:00,49.2,37.0,30.13,SE,145,0.0,1.0,62,0.00,,,0.00,weatherlink.com 1.10,2013-10-21 08:51:00,
2013-10-21 02:06:00,49.3,37.0,30.14,SE,146,0.0,0.0,62,0.00,,,0.00,weatherlink.com 1.10,2013-10-21 09:06:00,
2013-10-21 02:21:00,49.9,37.0,30.14,SE,144,0.0,1.0,61,0.00,,,0.00,weatherlink.com 1.10,2013-10-21 09:21:00,
2013-10-21 02:36:00,50.1,37.0,30.14,SE,143,0.0,0.0,61,0.00,,,0.00,weatherlink.com 1.10,2013-10-21 09:36:00,
2013-10-21 02:51:00,49.7,37.0,30.14,SE,144,0.0,0.0,61,0.00,,,0.00,weatherlink.com 1.10,2013-10-21 09:51:00,
2013-10-21 03:06:00,49.1,36.0,30.14,SE,143,0.0,0.0,62,0.00,,,0.00,weatherlink.com 1.10,2013-10-21 10:06:00,
2013-10-21 03:21:00,48.6,37.0,30.14,SE,144,0.0,1.0,64,0.00,,,0.00,weatherlink.com 1.10,2013-10-21 10:21:00,
2013-10-21 03:36:00,47.6,36.0,30.14,SE,143,0.0,0.0,65,0.00,,,0.00,weatherlink.com 1.10,2013-10-21 10:36:00,
2013-10-21 03:51:00,48.3,37.0,30.14,SE,145,2.0,2.0,64,0.00,,,0.00,weatherlink.com 1.10,2013-10-21 10:51:00,
2013-10-21 04:06:00,48.3,37.0,30.14,SE,143,0.0,1.0,64,0.00,,,0.00,weatherlink.com 1.10,2013-10-21 11:06:00,
2013-10-21 04:21:00,47.9,37.0,30.15,SE,143,0.0,1.0,65,0.00,,,0.00,weatherlink.com 1.10,2013-10-21 11:21:00,
2013-10-21 04:36:00,47.0,37.0,30.15,SE,144,0.0,0.0,68,0.00,,,0.00,weatherlink.com 1.10,2013-10-21 11:36:00,
2013-10-21 04:51:00,44.8,36.0,30.15,SSE,150,2.0,3.0,72,0.00,,,0.00,weatherlink.com 1.10,2013-10-21 11:51:00,
2013-10-21 05:06:00,44.3,37.0,30.15,SE,143,2.0,3.0,75,0.00,,,0.00,weatherlink.com 1.10,2013-10-21 12:06:00,
2013-10-21 05:21:00,45.0,37.0,30.14,SSE,148,3.0,4.0,73,0.00,,,0.00,weatherlink.com 1.10,2013-10-21 12:21:00,
2013-10-21 05:36:00,46.0,37.0,30.15,SE,141,1.0,4.0,70,0.00,,,0.00,weatherlink.com 1.10,2013-10-21 12:36:00,
2013-10-21 05:51:00,46.5,36.0,30.14,SE,141,0.0,1.0,68,0.00,,,0.00,weatherlink.com 1.10,2013-10-21 12:51:00,
2013-10-21 06:06:00,45.2,36.0,30.14,SE,131,0.0,1.0,71,0.00,,,0.00,weatherlink.com 1.10,2013-10-21 13:06:00,
2013-10-21 06:21:00,45.2,36.0,30.15,NE,56,0.0,1.0,71,0.00,,,0.00,weatherlink.com 1.10,2013-10-21 13:21:00,
2013-10-21 06:36:00,43.6,36.0,30.14,East,88,0.0,1.0,74,0.00,,,0.00,weatherlink.com 1.10,2013-10-21 13:36:00,
2013-10-21 06:51:00,43.0,36.0,30.15,East,85,0.0,1.0,76,0.00,,,0.00,weatherlink.com 1.10,2013-10-21 13:51:00,
2013-10-21 07:06:00,42.7,36.0,30.15,NNW,335,0.0,1.0,78,0.00,,,0.00,weatherlink.com 1.10,2013-10-21 14:06:00,
2013-10-21 07:21:00,41.2,36.0,30.16,SE,143,2.0,3.0,80,0.00,,,0.00,weatherlink.com 1.10,2013-10-21 14:21:00,
2013-10-21 07:36:00,42.9,36.0,30.17,SE,142,0.0,1.0,78,0.00,,,0.00,weatherlink.com 1.10,2013-10-21 14:36:00,
2013-10-21 07:51:00,42.9,36.0,30.17,SE,141,1.0,2.0,77,0.00,,,0.00,weatherlink.com 1.10,2013-10-21 14:51:00,
2013-10-21 08:06:00,42.2,36.0,30.16,SSE,150,1.0,2.0,80,0.00,,,0.00,weatherlink.com 1.10,2013-10-21 15:06:00,
2013-10-21 08:21:00,42.2,37.0,30.16,SE,144,1.0,4.0,81,0.00,,,0.00,weatherlink.com 1.10,2013-10-21 15:21:00,
2013-10-21 08:36:00,42.9,37.0,30.17,SSE,150,0.0,1.0,81,0.00,,,0.00,weatherlink.com 1.10,2013-10-21 15:36:00,
2013-10-21 08:52:00,43.5,38.0,30.17,SE,143,1.0,4.0,81,0.00,,,0.00,weatherlink.com 1.10,2013-10-21 15:52:00,
2013-10-21 09:07:00,42.4,37.0,30.18,SE,139,1.0,2.0,82,0.00,,,0.00,weatherlink.com 1.10,2013-10-21 16:07:00,
2013-10-21 09:22:00,44.0,39.0,30.18,South,186,0.0,4.0,81,0.00,,,0.00,weatherlink.com 1.10,2013-10-21 16:22:00,
2013-10-21 09:37:00,45.6,39.0,30.18,SSE,153,0.0,1.0,79,0.00,,,0.00,weatherlink.com 1.10,2013-10-21 16:37:00,
2013-10-21 09:52:00,45.5,39.0,30.18,South,183,2.0,3.0,79,0.00,,,0.00,weatherlink.com 1.10,2013-10-21 16:52:00,
2013-10-21 10:07:00,46.4,40.0,30.18,SSE,162,3.0,5.0,77,0.00,,,0.00,weatherlink.com 1.10,2013-10-21 17:07:00,
2013-10-21 10:22:00,47.0,40.0,30.17,SE,144,3.0,5.0,76,0.00,,,0.00,weatherlink.com 1.10,2013-10-21 17:22:00,
2013-10-21 10:37:00,47.4,40.0,30.18,NW,319,1.0,2.0,76,0.00,,,0.00,weatherlink.com 1.10,2013-10-21 17:37:00,
2013-10-21 10:52:00,46.8,40.0,30.18,NW,322,1.0,2.0,78,0.00,,,0.00,weatherlink.com 1.10,2013-10-21 17:52:00,
2013-10-21 11:07:00,47.8,41.0,30.18,West,274,0.0,1.0,78,0.00,,,0.00,weatherlink.com 1.10,2013-10-21 18:07:00,
2013-10-21 11:22:00,48.8,42.0,30.18,West,263,0.0,2.0,76,0.00,,,0.00,weatherlink.com 1.10,2013-10-21 18:22:00,
2013-10-21 11:37:00,50.2,42.0,30.18,West,264,1.0,2.0,74,0.00,,,0.00,weatherlink.com 1.10,2013-10-21 18:37:00,
2013-10-21 11:52:00,51.5,42.0,30.17,NNW,337,0.0,2.0,71,0.00,,,0.00,weatherlink.com 1.10,2013-10-21 18:52:00,
2013-10-21 12:07:00,52.3,43.0,30.17,NNW,330,2.0,3.0,70,0.00,,,0.00,weatherlink.com 1.10,2013-10-21 19:07:00,
2013-10-21 12:22:00,53.0,43.0,30.17,NNE,30,3.0,4.0,68,0.00,,,0.00,weatherlink.com 1.10,2013-10-21 19:22:00,
2013-10-21 12:37:00,53.5,43.0,30.17,NNE,12,3.0,5.0,67,0.00,,,0.00,weatherlink.com 1.10,2013-10-21 19:37:00,
2013-10-21 12:52:00,54.4,41.0,30.17,NE,34,3.0,5.0,61,0.00,,,0.00,weatherlink.com 1.10,2013-10-21 19:52:00,
2013-10-21 13:07:00,55.5,42.0,30.16,NNE,25,4.0,4.0,61,0.00,,,0.00,weatherlink.com 1.10,2013-10-21 20:07:00,
2013-10-21 13:22:00,56.4,42.0,30.15,North,11,1.0,4.0,59,0.00,,,0.00,weatherlink.com 1.10,2013-10-21 20:22:00,
2013-10-21 13:37:00,57.2,42.0,30.15,NW,326,1.0,3.0,57,0.00,,,0.00,weatherlink.com 1.10,2013-10-21 20:37:00,
2013-10-21 13:52:00,57.8,42.0,30.15,West,263,1.0,3.0,57,0.00,,,0.00,weatherlink.com 1.10,2013-10-21 20:52:00,
2013-10-21 14:07:00,58.7,42.0,30.14,NNW,334,2.0,4.0,55,0.00,,,0.00,weatherlink.com 1.10,2013-10-21 21:07:00,
2013-10-21 14:22:00,60.4,42.0,30.14,North,350,1.0,2.0,51,0.00,,,0.00,weatherlink.com 1.10,2013-10-21 21:22:00,
2013-10-21 14:37:00,60.9,42.0,30.14,SW,236,2.0,4.0,51,0.00,,,0.00,weatherlink.com 1.10,2013-10-21 21:37:00,
2013-10-21 14:52:00,61.0,40.0,30.14,WNW,302,0.0,3.0,47,0.00,,,0.00,weatherlink.com 1.10,2013-10-21 21:52:00,
2013-10-21 15:07:00,60.9,40.0,30.14,NNE,27,2.0,3.0,47,0.00,,,0.00,weatherlink.com 1.10,2013-10-21 22:07:00,
2013-10-21 15:22:00,60.9,40.0,30.14,NNW,341,1.0,3.0,46,0.00,,,0.00,weatherlink.com 1.10,2013-10-21 22:22:00,
2013-10-21 15:37:00,60.7,41.0,30.14,NNW,334,2.0,4.0,48,0.00,,,0.00,weatherlink.com 1.10,2013-10-21 22:37:00,
2013-10-21 15:52:00,61.9,41.0,30.13,NNW,333,1.0,3.0,47,0.00,,,0.00,weatherlink.com 1.10,2013-10-21 22:52:00,
2013-10-21 16:07:00,61.3,41.0,30.13,North,357,1.0,3.0,48,0.00,,,0.00,weatherlink.com 1.10,2013-10-21 23:07:00,
2013-10-21 16:22:00,60.8,41.0,30.13,North,359,1.0,3.0,48,0.00,,,0.00,weatherlink.com 1.10,2013-10-21 23:22:00,
2013-10-21 16:37:00,60.8,40.0,30.13,North,357,1.0,1.0,47,0.00,,,0.00,weatherlink.com 1.10,2013-10-21 23:37:00,
2013-10-21 16:52:00,60.6,40.0,30.13,NNE,18,1.0,1.0,47,0.00,,,0.00,weatherlink.com 1.10,2013-10-21 23:52:00,
2013-10-21 17:07:00,60.2,40.0,30.12,North,11,1.0,2.0,48,0.00,,,0.00,weatherlink.com 1.10,2013-10-22 00:07:00,
2013-10-21 17:22:00,59.2,40.0,30.13,NE,46,0.0,2.0,49,0.00,,,0.00,weatherlink.com 1.10,2013-10-22 00:22:00,
2013-10-21 17:37:00,58.4,40.0,30.12,NE,46,0.0,0.0,50,0.00,,,0.00,weatherlink.com 1.10,2013-10-22 00:37:00,
2013-10-21 17:52:00,57.4,39.0,30.12,East,92,1.0,1.0,51,0.00,,,0.00,weatherlink.com 1.10,2013-10-22 00:52:00,
2013-10-21 18:07:00,56.9,39.0,30.12,ESE,111,0.0,3.0,51,0.00,,,0.00,weatherlink.com 1.10,2013-10-22 01:07:00,
2013-10-21 18:22:00,57.0,39.0,30.12,ESE,110,1.0,3.0,52,0.00,,,0.00,weatherlink.com 1.10,2013-10-22 01:22:00,
2013-10-21 18:37:00,57.1,39.0,30.12,East,96,0.0,1.0,52,0.00,,,0.00,weatherlink.com 1.10,2013-10-22 01:37:00,
2013-10-21 18:52:00,56.4,39.0,30.12,East,96,0.0,1.0,53,0.00,,,0.00,weatherlink.com 1.10,2013-10-22 01:52:00,
2013-10-21 19:07:00,56.0,39.0,30.12,East,96,0.0,0.0,54,0.00,,,0.00,weatherlink.com 1.10,2013-10-22 02:07:00,
2013-10-21 19:22:00,54.5,39.0,30.12,East,96,1.0,1.0,56,0.00,,,0.00,weatherlink.com 1.10,2013-10-22 02:22:00,
2013-10-21 19:37:00,56.0,39.0,30.13,East,82,1.0,1.0,53,0.00,,,0.00,weatherlink.com 1.10,2013-10-22 02:37:00,
2013-10-21 19:52:00,56.4,39.0,30.13,ESE,105,1.0,3.0,52,0.00,,,0.00,weatherlink.com 1.10,2013-10-22 02:52:00,
2013-10-21 20:07:00,56.3,39.0,30.13,ENE,68,2.0,2.0,52,0.00,,,0.00,weatherlink.com 1.10,2013-10-22 03:07:00,
2013-10-21 20:22:00,56.6,38.0,30.13,East,96,0.0,3.0,51,0.00,,,0.00,weatherlink.com 1.10,2013-10-22 03:22:00,
2013-10-21 20:37:00,57.0,38.0,30.14,East,99,2.0,2.0,50,0.00,,,0.00,weatherlink.com 1.10,2013-10-22 03:37:00,
2013-10-21 20:52:00,56.8,38.0,30.14,East,92,0.0,1.0,50,0.00,,,0.00,weatherlink.com 1.10,2013-10-22 03:52:00,
2013-10-21 21:07:00,56.7,38.0,30.14,East,92,0.0,0.0,50,0.00,,,0.00,weatherlink.com 1.10,2013-10-22 04:07:00,
2013-10-21 21:22:00,55.8,38.0,30.14,SE,133,1.0,1.0,51,0.00,,,0.00,weatherlink.com 1.10,2013-10-22 04:22:00,
2013-10-21 21:38:00,55.6,38.0,30.14,SE,141,2.0,2.0,52,0.00,,,0.00,weatherlink.com 1.10,2013-10-22 04:38:00,
2013-10-21 21:53:00,55.9,38.0,30.14,SSE,156,2.0,3.0,52,0.00,,,0.00,weatherlink.com 1.10,2013-10-22 04:53:00,
2013-10-21 22:08:00,56.0,38.0,30.14,SSE,149,3.0,3.0,51,0.00,,,0.00,weatherlink.com 1.10,2013-10-22 05:08:00,
2013-10-21 22:23:00,56.2,38.0,30.14,SE,143,0.0,3.0,51,0.00,,,0.00,weatherlink.com 1.10,2013-10-22 05:23:00,
2013-10-21 22:38:00,54.8,38.0,30.14,SE,142,0.0,1.0,53,0.00,,,0.00,weatherlink.com 1.10,2013-10-22 05:38:00,
2013-10-21 22:53:00,53.7,38.0,30.14,SSE,150,2.0,2.0,55,0.00,,,0.00,weatherlink.com 1.10,2013-10-22 05:53:00,
2013-10-21 23:08:00,54.0,38.0,30.15,SSE,149,3.0,4.0,55,0.00,,,0.00,weatherlink.com 1.10,2013-10-22 06:08:00,
2013-10-21 23:23:00,54.3,38.0,30.15,SE,142,1.0,2.0,54,0.00,,,0.00,weatherlink.com 1.10,2013-10-22 06:23:00,
2013-10-21 23:38:00,53.2,38.0,30.15,SE,143,0.0,0.0,56,0.00,,,0.00,weatherlink.com 1.10,2013-10-22 06:38:00,
2013-10-21 23:53:00,52.0,37.0,30.15,SSE,153,2.0,2.0,58,0.00,,,0.00,weatherlink.com 1.10,2013-10-22 06:53:00,